createdAt,value
2023-03-01T00:00:47.807Z,101839.86
2023-03-01T00:01:58.715Z,101849.73
2023-03-01T00:03:02.209Z,101844.52
2023-03-01T00:04:05.280Z,101845.58
2023-03-01T00:05:08.658Z,101840.69
2023-03-01T00:06:12.277Z,101835.61
2023-03-01T00:07:15.127Z,101831.68
2023-03-01T00:08:18.017Z,101831.33
2023-03-01T00:09:21.171Z,101830.05
2023-03-01T00:10:24.035Z,101824.33
2023-03-01T00:11:30.347Z,101826.02
2023-03-01T00:12:33.216Z,101831.60
2023-03-01T00:13:36.749Z,101831.23
2023-03-01T00:14:40.408Z,101831.66
2023-03-01T00:15:43.367Z,101837.52
2023-03-01T00:16:47.375Z,101829.50
2023-03-01T00:17:50.245Z,101830.78
2023-03-01T00:18:54.393Z,101827.05
2023-03-01T00:19:57.236Z,101823.88
2023-03-01T00:21:00.252Z,101818.50
2023-03-01T00:22:03.243Z,101823.27
2023-03-01T00:23:06.075Z,101820.91
2023-03-01T00:24:09.688Z,101824.73
2023-03-01T00:25:12.579Z,101823.53
2023-03-01T00:26:16.876Z,101822.52
2023-03-01T00:27:19.864Z,101821.95
2023-03-01T00:28:22.890Z,101828.88
2023-03-01T00:29:26.266Z,101819.69
2023-03-01T00:30:29.133Z,101823.55
2023-03-01T00:31:34.297Z,101825.06
2023-03-01T00:32:37.134Z,101818.98
2023-03-01T00:33:40.978Z,101821.73
2023-03-01T00:34:43.825Z,101822.09
2023-03-01T00:35:46.846Z,101815.02
2023-03-01T00:36:50.073Z,101814.33
2023-03-01T00:37:58.775Z,101811.95
2023-03-01T00:39:02.687Z,101811.77
2023-03-01T00:40:07.212Z,101811.31
2023-03-01T00:41:13.156Z,101804.12
2023-03-01T00:42:17.096Z,101808.16
2023-03-01T00:43:20.340Z,101808.19
2023-03-01T00:44:23.371Z,101798.30
2023-03-01T00:45:26.744Z,101803.20
2023-03-01T00:46:31.673Z,101802.84
2023-03-01T00:47:34.802Z,101799.85
2023-03-01T00:48:38.281Z,101800.83
2023-03-01T00:49:41.193Z,101805.02
2023-03-01T00:50:44.061Z,101796.52
2023-03-01T00:51:46.928Z,101795.17
2023-03-01T00:52:54.059Z,101795.30
2023-03-01T00:53:59.706Z,101796.05
2023-03-01T00:55:02.635Z,101795.16
2023-03-01T00:56:06.776Z,101792.94
2023-03-01T00:57:10.233Z,101793.46
2023-03-01T00:58:13.124Z,101797.15
2023-03-01T00:59:16.023Z,101799.06
2023-03-01T01:00:20.022Z,101791.33
2023-03-01T01:01:30.699Z,101796.96
2023-03-01T01:02:34.900Z,101791.98
2023-03-01T01:03:37.856Z,101792.20
2023-03-01T01:04:40.977Z,101795.02
2023-03-01T01:05:43.857Z,101792.86
2023-03-01T01:06:47.837Z,101796.54
2023-03-01T01:07:50.685Z,101793.57
2023-03-01T01:08:55.246Z,101789.86
2023-03-01T01:09:58.222Z,101790.92
2023-03-01T01:11:01.136Z,101790.33
2023-03-01T01:12:05.286Z,101784.30
2023-03-01T01:13:08.280Z,101787.38
2023-03-01T01:14:11.268Z,101791.52
2023-03-01T01:15:15.295Z,101784.98
2023-03-01T01:16:19.560Z,101789.89
2023-03-01T01:17:22.476Z,101784.84
2023-03-01T01:18:25.364Z,101781.88
2023-03-01T01:19:28.439Z,101784.42
2023-03-01T01:20:31.894Z,101782.49
2023-03-01T01:21:35.319Z,101777.74
2023-03-01T01:22:38.255Z,101777.11
2023-03-01T01:23:42.248Z,101770.15
2023-03-01T01:24:45.111Z,101774.55
2023-03-01T01:25:47.940Z,101768.85
2023-03-01T01:26:51.200Z,101768.54
2023-03-01T01:27:54.052Z,101767.94
2023-03-01T01:28:57.274Z,101773.53
2023-03-01T01:30:01.187Z,101771.78
2023-03-01T01:31:05.400Z,101767.46
2023-03-01T01:32:08.411Z,101764.41
2023-03-01T01:33:11.256Z,101755.59
2023-03-01T01:34:20.759Z,101762.66
2023-03-01T01:35:23.632Z,101751.52
2023-03-01T01:36:26.976Z,101751.48
2023-03-01T01:37:32.103Z,101754.54
2023-03-01T01:38:36.547Z,101756.10
2023-03-01T01:39:39.494Z,101749.69
2023-03-01T01:40:46.582Z,101756.24
2023-03-01T01:41:49.952Z,101748.73
2023-03-01T01:42:52.795Z,101751.35
2023-03-01T01:44:16.758Z,101756.10
2023-03-01T01:45:36.502Z,101759.46
2023-03-01T01:46:48.100Z,101761.27
2023-03-01T01:47:52.293Z,101756.50
2023-03-01T01:49:01.610Z,101748.52
2023-03-01T01:50:04.754Z,101753.09
2023-03-01T01:51:14.285Z,101757.89
2023-03-01T01:52:28.244Z,101754.80
2023-03-01T01:53:31.238Z,101750.69
2023-03-01T01:54:47.549Z,101745.48
2023-03-01T01:55:58.177Z,101744.40
2023-03-01T01:57:08.004Z,101745.71
2023-03-01T01:58:14.885Z,101738.94
2023-03-01T01:59:17.966Z,101742.25
2023-03-01T02:00:26.942Z,101741.40
2023-03-01T02:01:29.915Z,101741.36
2023-03-01T02:02:32.954Z,101734.04
2023-03-01T02:03:43.303Z,101734.81
2023-03-01T02:04:48.861Z,101732.80
2023-03-01T02:05:58.973Z,101730.62
2023-03-01T02:07:08.423Z,101737.30
2023-03-01T02:08:13.488Z,101741.14
2023-03-01T02:09:19.577Z,101745.23
2023-03-01T02:10:25.667Z,101740.20
2023-03-01T02:11:30.626Z,101739.92
2023-03-01T02:12:35.111Z,101733.97
2023-03-01T02:13:38.895Z,101733.77
2023-03-01T02:14:41.935Z,101736.61
2023-03-01T02:15:45.688Z,101740.98
2023-03-01T02:16:49.106Z,101741.61
2023-03-01T02:17:53.318Z,101739.52
2023-03-01T02:18:57.146Z,101740.98
2023-03-01T02:20:44.647Z,101742.30
2023-03-01T02:21:56.459Z,101747.55
2023-03-01T02:22:59.915Z,101745.91
2023-03-01T02:24:30.480Z,101745.10
2023-03-01T02:25:41.704Z,101739.70
2023-03-01T02:26:49.643Z,101746.71
2023-03-01T02:28:17.209Z,101747.50
2023-03-01T02:29:20.174Z,101750.27
2023-03-01T02:30:25.800Z,101737.12
2023-03-01T02:31:44.093Z,101740.90
2023-03-01T02:32:49.459Z,101737.66
2023-03-01T02:33:55.187Z,101738.46
2023-03-01T02:34:58.903Z,101738.45
2023-03-01T02:36:05.878Z,101732.96
2023-03-01T02:37:15.832Z,101743.23
2023-03-01T02:38:19.004Z,101741.17
2023-03-01T02:39:43.329Z,101732.81
2023-03-01T02:40:46.699Z,101730.79
2023-03-01T02:41:53.332Z,101727.33
2023-03-01T02:42:59.107Z,101730.38
2023-03-01T02:44:02.927Z,101726.36
2023-03-01T02:45:06.534Z,101725.95
2023-03-01T02:46:19.671Z,101725.64
2023-03-01T02:47:22.814Z,101729.75
2023-03-01T02:48:25.973Z,101721.98
2023-03-01T02:49:35.593Z,101720.00
2023-03-01T02:51:32.336Z,101720.25
2023-03-01T02:52:49.700Z,101712.37
2023-03-01T02:54:18.979Z,101715.87
2023-03-01T02:55:21.984Z,101709.44
2023-03-01T02:56:28.220Z,101706.46
2023-03-01T02:57:32.977Z,101717.60
2023-03-01T02:58:46.608Z,101715.70
2023-03-01T02:59:52.714Z,101717.18
2023-03-01T03:00:56.631Z,101721.55
2023-03-01T03:02:01.802Z,101722.64
2023-03-01T03:03:04.720Z,101715.46
2023-03-01T03:04:11.385Z,101720.61
2023-03-01T03:05:18.726Z,101715.98
2023-03-01T03:06:22.092Z,101721.98
2023-03-01T03:07:25.491Z,101717.13
2023-03-01T03:08:28.897Z,101716.18
2023-03-01T03:09:31.910Z,101714.87
2023-03-01T03:10:39.212Z,101714.79
2023-03-01T03:11:43.635Z,101712.42
2023-03-01T03:12:55.187Z,101704.69
2023-03-01T03:13:58.867Z,101706.63
2023-03-01T03:15:01.928Z,101701.61
2023-03-01T03:16:05.720Z,101701.31
2023-03-01T03:17:08.656Z,101691.38
2023-03-01T03:18:15.001Z,101695.05
2023-03-01T03:19:20.084Z,101696.31
2023-03-01T03:20:25.889Z,101697.34
2023-03-01T03:21:28.739Z,101697.42
2023-03-01T03:22:32.619Z,101697.92
2023-03-01T03:23:36.611Z,101697.23
2023-03-01T03:24:39.545Z,101695.90
2023-03-01T03:25:42.459Z,101694.70
2023-03-01T03:26:45.292Z,101694.83
2023-03-01T03:27:49.883Z,101695.61
2023-03-01T03:28:52.927Z,101693.10
2023-03-01T03:29:55.766Z,101689.14
2023-03-01T03:30:59.421Z,101694.90
2023-03-01T03:32:02.323Z,101688.88
2023-03-01T03:33:06.977Z,101683.43
2023-03-01T03:34:18.561Z,101684.88
2023-03-01T03:35:34.897Z,101682.86
2023-03-01T03:36:37.869Z,101684.14
2023-03-01T03:38:00.320Z,101676.33
2023-03-01T03:39:03.489Z,101674.71
2023-03-01T03:40:16.336Z,101669.24
2023-03-01T03:41:19.521Z,101672.91
2023-03-01T03:42:25.913Z,101668.98
2023-03-01T03:43:31.433Z,101675.86
2023-03-01T03:44:34.293Z,101670.34
2023-03-01T03:45:37.858Z,101670.55
2023-03-01T03:46:40.781Z,101663.27
2023-03-01T03:47:44.729Z,101667.75
2023-03-01T03:48:47.724Z,101664.16
2023-03-01T03:49:50.605Z,101661.48
2023-03-01T03:50:55.873Z,101659.54
2023-03-01T03:51:58.766Z,101668.27
2023-03-01T03:53:03.225Z,101671.70
2023-03-01T03:54:06.108Z,101668.80
2023-03-01T03:55:11.444Z,101668.33
2023-03-01T03:56:14.749Z,101675.00
2023-03-01T03:57:17.594Z,101669.63
2023-03-01T03:58:24.712Z,101673.59
2023-03-01T03:59:27.868Z,101676.62
2023-03-01T04:00:30.783Z,101670.91
2023-03-01T04:01:33.697Z,101670.79
2023-03-01T04:02:37.111Z,101667.11
2023-03-01T04:03:40.087Z,101668.85
2023-03-01T04:04:42.923Z,101670.33
2023-03-01T04:05:46.681Z,101661.48
2023-03-01T04:06:49.713Z,101664.62
2023-03-01T04:08:02.115Z,101664.27
2023-03-01T04:09:05.151Z,101653.50
2023-03-01T04:10:11.933Z,101655.44
2023-03-01T04:11:29.669Z,101656.11
2023-03-01T04:12:35.105Z,101652.34
2023-03-01T04:13:38.056Z,101653.43
2023-03-01T04:14:41.061Z,101662.83
2023-03-01T04:15:44.503Z,101655.13
2023-03-01T04:16:47.399Z,101650.70
2023-03-01T04:17:50.985Z,101644.15
2023-03-01T04:18:54.610Z,101647.05
2023-03-01T04:19:57.564Z,101654.38
2023-03-01T04:21:00.431Z,101651.73
2023-03-01T04:22:10.377Z,101654.45
2023-03-01T04:23:16.848Z,101657.94
2023-03-01T04:24:20.036Z,101654.56
2023-03-01T04:25:22.952Z,101658.98
2023-03-01T04:26:28.367Z,101659.41
2023-03-01T04:27:31.436Z,101669.30
2023-03-01T04:28:41.431Z,101663.48
2023-03-01T04:29:44.295Z,101668.88
2023-03-01T04:30:47.188Z,101672.57
2023-03-01T04:31:50.509Z,101669.08
2023-03-01T04:32:53.408Z,101662.80
2023-03-01T04:33:56.980Z,101665.29
2023-03-01T04:35:00.096Z,101665.40
2023-03-01T04:36:06.445Z,101663.34
2023-03-01T04:37:10.038Z,101662.95
2023-03-01T04:38:12.901Z,101657.66
2023-03-01T04:39:15.780Z,101656.78
2023-03-01T04:40:18.698Z,101658.36
2023-03-01T04:41:24.960Z,101656.30
2023-03-01T04:42:27.852Z,101656.90
2023-03-01T04:43:30.900Z,101650.88
2023-03-01T04:44:33.772Z,101646.16
2023-03-01T04:45:37.226Z,101647.23
2023-03-01T04:46:40.625Z,101649.09
2023-03-01T04:47:45.516Z,101654.59
2023-03-01T04:48:48.610Z,101654.45
2023-03-01T04:49:51.452Z,101649.34
2023-03-01T04:50:54.301Z,101649.88
2023-03-01T04:51:59.372Z,101646.98
2023-03-01T04:53:02.404Z,101645.85
2023-03-01T04:54:06.402Z,101642.92
2023-03-01T04:55:10.540Z,101644.69
2023-03-01T04:56:17.005Z,101641.43
2023-03-01T04:57:19.841Z,101634.98
2023-03-01T04:58:27.515Z,101637.26
2023-03-01T04:59:30.505Z,101634.44
2023-03-01T05:00:33.349Z,101630.68
2023-03-01T05:01:37.979Z,101634.95
2023-03-01T05:02:40.878Z,101632.21
2023-03-01T05:03:49.085Z,101634.25
2023-03-01T05:04:52.330Z,101634.75
2023-03-01T05:05:55.227Z,101629.33
2023-03-01T05:06:59.851Z,101630.70
2023-03-01T05:08:06.149Z,101630.03
2023-03-01T05:09:09.035Z,101631.82
2023-03-01T05:10:11.909Z,101621.08
2023-03-01T05:11:15.029Z,101625.52
2023-03-01T05:12:18.013Z,101626.55
2023-03-01T05:13:22.308Z,101620.14
2023-03-01T05:14:25.610Z,101620.73
2023-03-01T05:15:31.517Z,101618.69
2023-03-01T05:16:36.554Z,101625.65
2023-03-01T05:17:39.763Z,101625.39
2023-03-01T05:18:42.847Z,101619.91
2023-03-01T05:19:45.871Z,101620.02
2023-03-01T05:20:48.689Z,101624.34
2023-03-01T05:22:03.262Z,101622.55
2023-03-01T05:23:08.987Z,101623.95
2023-03-01T05:24:12.766Z,101629.52
2023-03-01T05:25:15.733Z,101626.61
2023-03-01T05:26:28.339Z,101634.04
2023-03-01T05:27:32.104Z,101633.75
2023-03-01T05:28:35.627Z,101635.63
2023-03-01T05:29:40.506Z,101634.24
2023-03-01T05:30:43.575Z,101636.02
2023-03-01T05:31:46.481Z,101639.42
2023-03-01T05:32:56.788Z,101638.39
2023-03-01T05:33:59.995Z,101633.48
2023-03-01T05:35:02.866Z,101639.45
2023-03-01T05:36:08.306Z,101640.20
2023-03-01T05:37:11.251Z,101643.95
2023-03-01T05:38:14.424Z,101644.84
2023-03-01T05:39:17.293Z,101643.55
2023-03-01T05:40:22.286Z,101651.55
2023-03-01T05:41:25.359Z,101648.39
2023-03-01T05:42:28.187Z,101660.16
2023-03-01T05:43:35.446Z,101654.64
2023-03-01T05:44:38.642Z,101659.96
2023-03-01T05:45:42.823Z,101661.52
2023-03-01T05:46:46.069Z,101663.89
2023-03-01T05:47:50.687Z,101666.88
2023-03-01T05:48:53.860Z,101662.46
2023-03-01T05:49:56.738Z,101665.16
2023-03-01T05:51:01.760Z,101665.61
2023-03-01T05:52:04.738Z,101661.95
2023-03-01T05:53:15.085Z,101665.61
2023-03-01T05:54:18.925Z,101669.65
2023-03-01T05:55:23.191Z,101671.70
2023-03-01T05:56:26.175Z,101671.45
2023-03-01T05:57:30.926Z,101672.42
2023-03-01T05:58:33.860Z,101669.86
2023-03-01T05:59:36.716Z,101669.02
2023-03-01T06:00:39.720Z,101672.49
2023-03-01T06:01:42.788Z,101667.61
2023-03-01T06:02:46.116Z,101672.08
2023-03-01T06:03:49.268Z,101669.95
2023-03-01T06:04:52.217Z,101671.64
2023-03-01T06:05:59.519Z,101673.42
2023-03-01T06:07:02.460Z,101671.25
2023-03-01T06:08:05.460Z,101674.27
2023-03-01T06:09:10.231Z,101663.24
2023-03-01T06:10:14.198Z,101672.10
2023-03-01T06:11:17.194Z,101668.95
2023-03-01T06:12:21.258Z,101666.87
2023-03-01T06:13:25.058Z,101667.35
2023-03-01T06:14:27.931Z,101670.11
2023-03-01T06:15:31.188Z,101671.45
2023-03-01T06:16:34.173Z,101668.50
2023-03-01T06:17:40.706Z,101665.71
2023-03-01T06:18:44.748Z,101669.17
2023-03-01T06:19:48.349Z,101670.84
2023-03-01T06:20:56.381Z,101668.86
2023-03-01T06:22:00.337Z,101666.06
2023-03-01T06:23:04.336Z,101669.66
2023-03-01T06:24:09.579Z,101669.17
2023-03-01T06:25:16.022Z,101669.02
2023-03-01T06:26:19.099Z,101666.84
2023-03-01T06:27:23.214Z,101667.16
2023-03-01T06:28:27.525Z,101662.60
2023-03-01T06:29:31.800Z,101666.21
2023-03-01T06:30:34.788Z,101670.34
2023-03-01T06:31:37.713Z,101667.27
2023-03-01T06:32:44.812Z,101665.40
2023-03-01T06:33:47.717Z,101665.79
2023-03-01T06:34:51.039Z,101667.01
2023-03-01T06:35:57.689Z,101660.02
2023-03-01T06:37:03.781Z,101661.86
2023-03-01T06:38:07.206Z,101658.08
2023-03-01T06:39:10.187Z,101655.61
2023-03-01T06:40:14.868Z,101660.46
2023-03-01T06:41:18.850Z,101666.13
2023-03-01T06:42:21.768Z,101664.68
2023-03-01T06:43:25.253Z,101667.44
2023-03-01T06:44:28.546Z,101669.30
2023-03-01T06:45:31.528Z,101673.23
2023-03-01T06:46:35.572Z,101670.52
2023-03-01T06:47:40.031Z,101673.23
2023-03-01T06:48:44.030Z,101670.35
2023-03-01T06:49:47.006Z,101668.13
2023-03-01T06:50:50.093Z,101667.03
2023-03-01T06:51:53.162Z,101669.79
2023-03-01T06:52:58.331Z,101672.23
2023-03-01T06:54:02.394Z,101671.34
2023-03-01T06:55:06.196Z,101669.35
2023-03-01T06:56:10.287Z,101670.02
2023-03-01T06:57:13.200Z,101669.59
2023-03-01T06:58:16.247Z,101668.33
2023-03-01T06:59:19.573Z,101667.84
2023-03-01T07:00:23.008Z,101666.36
2023-03-01T07:01:26.579Z,101666.48
2023-03-01T07:02:29.628Z,101667.15
2023-03-01T07:04:34.920Z,101670.55
2023-03-01T07:05:38.198Z,101668.43
2023-03-01T07:06:41.488Z,101665.85
2023-03-01T07:07:45.893Z,101666.00
2023-03-01T07:08:49.900Z,101661.75
2023-03-01T07:09:54.406Z,101670.37
2023-03-01T07:10:59.744Z,101667.36
2023-03-01T07:12:04.604Z,101667.91
2023-03-01T07:13:09.381Z,101663.69
2023-03-01T07:14:12.286Z,101663.80
2023-03-01T07:15:16.349Z,101666.63
2023-03-01T07:16:19.354Z,101664.13
2023-03-01T07:17:22.305Z,101664.40
2023-03-01T07:18:25.503Z,101667.77
2023-03-01T07:19:28.749Z,101661.70
2023-03-01T07:20:31.641Z,101666.58
2023-03-01T07:21:34.523Z,101666.59
2023-03-01T07:22:37.352Z,101671.25
2023-03-01T07:23:40.569Z,101666.67
2023-03-01T07:24:44.186Z,101664.23
2023-03-01T07:25:54.239Z,101659.92
2023-03-01T07:26:57.179Z,101663.73
2023-03-01T07:28:00.254Z,101662.77
2023-03-01T07:29:05.307Z,101663.58
2023-03-01T07:30:09.211Z,101665.89
2023-03-01T07:31:12.167Z,101660.77
2023-03-01T07:32:15.233Z,101656.89
2023-03-01T07:33:19.070Z,101656.10
2023-03-01T07:34:22.316Z,101656.68
2023-03-01T07:35:27.582Z,101658.35
2023-03-01T07:36:30.787Z,101652.15
2023-03-01T07:37:34.011Z,101645.80
2023-03-01T07:38:36.989Z,101649.16
2023-03-01T07:39:40.304Z,101644.35
2023-03-01T07:40:43.244Z,101643.05
2023-03-01T07:41:46.122Z,101642.08
2023-03-01T07:42:49.103Z,101641.44
2023-03-01T07:43:52.182Z,101637.58
2023-03-01T07:44:55.045Z,101637.09
2023-03-01T07:46:02.705Z,101637.13
2023-03-01T07:47:06.120Z,101636.63
2023-03-01T07:48:09.060Z,101636.16
2023-03-01T07:49:12.073Z,101636.68
2023-03-01T07:50:15.153Z,101637.17
2023-03-01T07:51:19.385Z,101636.14
2023-03-01T07:52:24.077Z,101633.83
2023-03-01T07:53:27.237Z,101635.48
2023-03-01T07:54:30.129Z,101637.39
2023-03-01T07:55:33.005Z,101639.98
2023-03-01T07:56:36.370Z,101640.57
2023-03-01T07:57:40.080Z,101643.20
2023-03-01T07:58:44.918Z,101641.35
2023-03-01T07:59:47.983Z,101637.13
2023-03-01T08:00:50.853Z,101640.38
2023-03-01T08:01:53.803Z,101640.38
2023-03-01T08:03:00.945Z,101636.86
2023-03-01T08:04:05.823Z,101638.61
2023-03-01T08:05:10.477Z,101638.94
2023-03-01T08:06:15.676Z,101637.17
2023-03-01T08:07:18.649Z,101645.04
2023-03-01T08:08:21.513Z,101644.86
2023-03-01T08:09:24.387Z,101645.65
2023-03-01T08:10:27.419Z,101640.69
2023-03-01T08:11:30.362Z,101644.33
2023-03-01T08:12:33.420Z,101644.73
2023-03-01T08:13:36.396Z,101645.06
2023-03-01T08:14:39.580Z,101646.35
2023-03-01T08:15:42.358Z,101637.80
2023-03-01T08:16:45.359Z,101641.51
2023-03-01T08:17:50.453Z,101639.80
2023-03-01T08:18:53.635Z,101638.75
2023-03-01T08:19:56.608Z,101642.91
2023-03-01T08:21:07.679Z,101641.45
2023-03-01T08:22:10.558Z,101643.36
2023-03-01T08:23:13.745Z,101646.75
2023-03-01T08:24:16.927Z,101644.73
2023-03-01T08:25:19.989Z,101647.02
2023-03-01T08:26:23.488Z,101649.63
2023-03-01T08:27:26.356Z,101647.63
2023-03-01T08:28:29.224Z,101646.45
2023-03-01T08:29:32.508Z,101644.74
2023-03-01T08:30:36.105Z,101640.20
2023-03-01T08:31:41.139Z,101644.42
2023-03-01T08:32:44.170Z,101643.47
2023-03-01T08:33:56.593Z,101647.23
2023-03-01T08:34:59.586Z,101644.51
2023-03-01T08:36:07.963Z,101643.42
2023-03-01T08:37:10.938Z,101644.55
2023-03-01T08:38:13.767Z,101646.28
2023-03-01T08:39:19.473Z,101647.42
2023-03-01T08:40:22.401Z,101647.14
2023-03-01T08:41:25.424Z,101645.55
2023-03-01T08:42:28.420Z,101643.30
2023-03-01T08:43:32.220Z,101641.05
2023-03-01T08:44:36.192Z,101642.67
2023-03-01T08:45:39.246Z,101642.89
2023-03-01T08:46:44.415Z,101639.78
2023-03-01T08:47:47.391Z,101636.73
2023-03-01T08:48:50.249Z,101635.64
2023-03-01T08:49:53.940Z,101633.80
2023-03-01T08:50:57.123Z,101635.16
2023-03-01T08:51:59.996Z,101635.34
2023-03-01T08:53:02.874Z,101633.61
2023-03-01T08:54:07.791Z,101636.64
2023-03-01T08:55:10.873Z,101638.35
2023-03-01T08:56:15.020Z,101643.56
2023-03-01T08:57:17.953Z,101646.39
2023-03-01T08:58:20.926Z,101647.05
2023-03-01T08:59:23.812Z,101650.02
2023-03-01T09:00:26.893Z,101649.66
2023-03-01T09:01:30.269Z,101649.70
2023-03-01T09:02:33.280Z,101651.34
2023-03-01T09:03:37.044Z,101650.13
2023-03-01T09:04:40.547Z,101652.90
2023-03-01T09:05:43.502Z,101651.68
2023-03-01T09:06:46.582Z,101646.66
2023-03-01T09:07:49.453Z,101646.80
2023-03-01T09:08:52.366Z,101647.52
2023-03-01T09:09:56.345Z,101645.87
2023-03-01T09:10:59.204Z,101641.27
2023-03-01T09:12:02.795Z,101644.62
2023-03-01T09:13:05.680Z,101647.63
2023-03-01T09:14:08.561Z,101650.89
2023-03-01T09:15:14.682Z,101648.29
2023-03-01T09:16:20.286Z,101646.82
2023-03-01T09:17:23.209Z,101648.20
2023-03-01T09:18:26.097Z,101650.23
2023-03-01T09:19:28.955Z,101651.45
2023-03-01T09:20:33.058Z,101649.77
2023-03-01T09:21:40.539Z,101648.70
2023-03-01T09:22:45.056Z,101653.58
2023-03-01T09:23:49.569Z,101648.51
2023-03-01T09:24:52.540Z,101649.33
2023-03-01T09:25:55.418Z,101649.05
2023-03-01T09:26:58.719Z,101650.20
2023-03-01T09:28:01.777Z,101650.84
2023-03-01T09:29:04.661Z,101652.85
2023-03-01T09:30:08.622Z,101647.96
2023-03-01T09:31:13.906Z,101645.17
2023-03-01T09:32:17.092Z,101641.66
2023-03-01T09:33:20.559Z,101642.45
2023-03-01T09:34:24.549Z,101639.13
2023-03-01T09:35:27.530Z,101637.95
2023-03-01T09:36:30.745Z,101636.02
2023-03-01T09:37:35.437Z,101635.37
2023-03-01T09:38:38.440Z,101637.67
2023-03-01T09:39:41.377Z,101637.23
2023-03-01T09:40:47.427Z,101641.19
2023-03-01T09:42:12.933Z,101636.41
2023-03-01T09:43:25.020Z,101633.21
2023-03-01T09:45:01.196Z,101633.28
2023-03-01T09:46:07.385Z,101626.63
2023-03-01T09:47:17.307Z,101626.14
2023-03-01T09:48:24.971Z,101622.52
2023-03-01T09:49:41.341Z,101621.75
2023-03-01T09:50:47.721Z,101620.57
2023-03-01T09:52:20.351Z,101621.23
2023-03-01T09:53:32.162Z,101618.86
2023-03-01T09:54:35.134Z,101617.42
2023-03-01T09:55:46.979Z,101619.64
2023-03-01T09:57:14.475Z,101618.75
2023-03-01T09:58:43.149Z,101618.35
2023-03-01T10:00:26.376Z,101615.58
2023-03-01T10:01:42.369Z,101610.85
2023-03-01T10:02:52.090Z,101611.64
2023-03-01T10:04:14.043Z,101615.91
2023-03-01T10:05:23.635Z,101609.20
2023-03-01T10:06:34.857Z,101608.04
2023-03-01T10:07:56.119Z,101611.28
2023-03-01T10:09:11.895Z,101606.36
2023-03-01T10:10:34.693Z,101603.31
2023-03-01T10:11:42.946Z,101597.89
2023-03-01T10:12:46.852Z,101597.45
2023-03-01T10:13:55.302Z,101601.09
2023-03-01T10:15:16.590Z,101601.84
2023-03-01T10:16:38.153Z,101595.55
2023-03-01T10:17:48.197Z,101589.42
2023-03-01T10:18:59.609Z,101587.95
2023-03-01T10:20:17.770Z,101592.23
2023-03-01T10:21:21.794Z,101581.89
2023-03-01T10:22:32.878Z,101581.48
2023-03-01T10:23:37.079Z,101577.30
2023-03-01T10:24:40.145Z,101572.03
2023-03-01T10:25:57.047Z,101569.85
2023-03-01T10:27:18.543Z,101574.31
2023-03-01T10:28:30.857Z,101570.23
2023-03-01T10:29:45.811Z,101566.16
2023-03-01T10:30:48.804Z,101570.42
2023-03-01T10:31:54.231Z,101569.72
2023-03-01T10:32:58.941Z,101570.76
2023-03-01T10:34:02.739Z,101569.52
2023-03-01T10:35:25.071Z,101565.09
2023-03-01T10:36:27.943Z,101563.92
2023-03-01T10:37:31.015Z,101561.84
2023-03-01T10:38:56.223Z,101561.88
2023-03-01T10:40:11.873Z,101563.27
2023-03-01T10:41:14.968Z,101567.02
2023-03-01T10:42:26.995Z,101566.88
2023-03-01T10:43:44.686Z,101564.91
2023-03-01T10:44:50.257Z,101563.30
2023-03-01T10:45:53.415Z,101566.08
2023-03-01T10:47:02.768Z,101566.73
2023-03-01T10:48:14.676Z,101567.48
2023-03-01T10:49:23.324Z,101563.06
2023-03-01T10:50:26.291Z,101560.50
2023-03-01T10:51:29.776Z,101559.34
2023-03-01T10:52:36.581Z,101561.15
2023-03-01T10:53:43.724Z,101561.77
2023-03-01T10:54:56.325Z,101560.45
2023-03-01T10:56:05.239Z,101561.59
2023-03-01T10:57:30.343Z,101555.46
2023-03-01T10:58:35.337Z,101556.17
2023-03-01T10:59:40.074Z,101554.45
2023-03-01T11:00:55.448Z,101559.91
2023-03-01T11:02:23.408Z,101552.08
2023-03-01T11:03:31.989Z,101551.11
2023-03-01T11:04:34.939Z,101556.67
2023-03-01T11:05:38.012Z,101552.73
2023-03-01T11:06:42.590Z,101550.79
2023-03-01T11:07:54.756Z,101543.08
2023-03-01T11:08:57.961Z,101546.55
2023-03-01T11:10:01.132Z,101551.76
2023-03-01T11:11:36.284Z,101546.90
2023-03-01T11:12:39.614Z,101549.39
2023-03-01T11:14:26.394Z,101543.36
2023-03-01T11:15:30.414Z,101546.58
2023-03-01T11:16:36.832Z,101545.91
2023-03-01T11:17:54.522Z,101546.66
2023-03-01T11:19:14.814Z,101547.77
2023-03-01T11:20:30.594Z,101548.63
2023-03-01T11:21:35.698Z,101547.39
2023-03-01T11:22:47.123Z,101547.10
2023-03-01T11:23:50.005Z,101543.23
2023-03-01T11:25:09.015Z,101541.61
2023-03-01T11:26:14.348Z,101541.84
2023-03-01T11:27:29.449Z,101541.32
2023-03-01T11:28:33.856Z,101540.77
2023-03-01T11:29:48.453Z,101536.95
2023-03-01T11:31:07.543Z,101533.13
2023-03-01T11:32:14.677Z,101531.89
2023-03-01T11:33:49.443Z,101532.53
2023-03-01T11:34:59.061Z,101527.20
2023-03-01T11:36:16.896Z,101527.70
2023-03-01T11:37:57.734Z,101528.54
2023-03-01T11:39:18.423Z,101529.90
2023-03-01T11:40:56.037Z,101527.00
2023-03-01T11:42:19.049Z,101520.54
2023-03-01T11:43:40.670Z,101524.39
2023-03-01T11:44:46.106Z,101525.39
2023-03-01T11:45:59.935Z,101526.93
2023-03-01T11:47:02.919Z,101526.89
2023-03-01T11:48:49.298Z,101528.41
2023-03-01T11:50:02.189Z,101526.97
2023-03-01T11:51:15.101Z,101523.40
2023-03-01T11:52:18.516Z,101525.17
2023-03-01T11:53:44.258Z,101524.23
2023-03-01T11:55:02.497Z,101526.23
2023-03-01T11:56:25.561Z,101526.38
2023-03-01T11:57:42.375Z,101528.30
2023-03-01T11:58:48.863Z,101529.08
2023-03-01T12:00:15.904Z,101528.09
2023-03-01T12:01:37.248Z,101529.51
2023-03-01T12:02:52.883Z,101527.59
2023-03-01T12:04:08.030Z,101526.63
2023-03-01T12:05:50.035Z,101522.45
2023-03-01T12:07:02.444Z,101523.48
2023-03-01T12:08:13.866Z,101522.48
2023-03-01T12:09:45.867Z,101525.55
2023-03-01T12:11:00.850Z,101521.89
2023-03-01T12:12:27.251Z,101520.97
2023-03-01T12:13:51.018Z,101520.02
2023-03-01T12:15:09.252Z,101517.34
2023-03-01T12:16:16.257Z,101520.86
2023-03-01T12:17:28.366Z,101512.31
2023-03-01T12:18:53.300Z,101513.30
2023-03-01T12:20:31.813Z,101516.04
2023-03-01T12:21:49.637Z,101515.60
2023-03-01T12:23:30.602Z,101522.65
2023-03-01T12:24:33.576Z,101516.95
2023-03-01T12:25:59.286Z,101517.36
2023-03-01T12:27:53.667Z,101519.70
2023-03-01T12:29:21.153Z,101522.15
2023-03-01T12:30:53.277Z,101517.94
2023-03-01T12:32:35.391Z,101516.77
2023-03-01T12:33:58.322Z,101512.38
2023-03-01T12:35:25.665Z,101513.92
2023-03-01T12:36:43.594Z,101514.34
2023-03-01T12:38:14.432Z,101510.54
2023-03-01T12:39:51.803Z,101508.02
2023-03-01T12:41:15.260Z,101505.27
2023-03-01T12:42:18.023Z,101509.01
2023-03-01T12:43:35.352Z,101503.75
2023-03-01T12:44:59.657Z,101500.84
2023-03-01T12:46:05.808Z,101503.77
2023-03-01T12:47:26.868Z,101505.29
2023-03-01T12:48:36.562Z,101500.32